createdAt,value
2023-02-14T00:03:23.804Z,30.20
2023-02-14T00:08:27.420Z,33.80
2023-02-14T00:13:30.995Z,33.40
2023-02-14T00:18:52.526Z,35.70
2023-02-14T00:23:55.984Z,31.80
2023-02-14T00:28:59.665Z,32.80
2023-02-14T00:34:03.213Z,29.30
2023-02-14T00:39:09.027Z,33.00
2023-02-14T00:44:14.674Z,31.30
2023-02-14T00:49:18.514Z,31.30
2023-02-14T00:54:22.101Z,35.50
2023-02-14T00:59:25.875Z,34.50
2023-02-14T01:04:29.638Z,33.10
2023-02-14T01:09:33.404Z,35.70
2023-02-14T01:14:38.777Z,30.60
2023-02-14T01:19:42.111Z,34.70
2023-02-14T01:24:45.698Z,34.20
2023-02-14T01:29:49.215Z,28.10
2023-02-14T01:34:52.761Z,33.70
2023-02-14T01:39:56.290Z,31.00
2023-02-14T01:45:03.599Z,33.20
2023-02-14T01:50:12.040Z,36.10
2023-02-14T01:55:19.398Z,35.20
2023-02-14T02:00:41.743Z,30.80
2023-02-14T02:05:50.079Z,30.50
2023-02-14T02:10:53.601Z,32.00
2023-02-14T02:16:13.112Z,31.40
2023-02-14T02:22:06.878Z,31.60
2023-02-14T02:27:40.133Z,33.10
2023-02-14T02:33:20.280Z,28.20
2023-02-14T02:38:38.179Z,31.70
2023-02-14T02:43:51.746Z,32.80
2023-02-14T02:49:05.618Z,28.30
2023-02-14T02:54:16.646Z,25.70
2023-02-14T02:59:24.380Z,24.60
2023-02-14T03:04:52.822Z,27.20
2023-02-14T03:09:58.614Z,30.90
2023-02-14T03:15:11.975Z,31.60
2023-02-14T03:20:22.062Z,30.80
2023-02-14T03:25:36.998Z,29.20
2023-02-14T03:30:52.760Z,27.90
2023-02-14T03:36:01.913Z,28.50
2023-02-14T03:41:12.455Z,27.40
2023-02-14T03:46:22.042Z,26.20
2023-02-14T03:51:27.930Z,24.30
2023-02-14T03:56:37.068Z,24.60
2023-02-14T04:01:47.941Z,28.50
2023-02-14T04:06:51.848Z,27.00
2023-02-14T04:11:55.405Z,27.50
2023-02-14T04:17:17.516Z,26.80
2023-02-14T04:27:23.629Z,29.50
2023-02-14T04:32:27.224Z,26.00
2023-02-14T04:37:30.925Z,27.20
2023-02-14T04:42:34.426Z,27.10
2023-02-14T04:47:37.920Z,25.20
2023-02-14T04:52:41.866Z,27.30
2023-02-14T04:57:45.312Z,31.30
2023-02-14T05:02:48.955Z,30.40
2023-02-14T05:07:52.656Z,28.90
2023-02-14T05:12:56.221Z,29.90
2023-02-14T05:18:02.313Z,29.00
2023-02-14T05:23:12.877Z,26.70
2023-02-14T05:28:16.874Z,27.00
2023-02-14T05:33:20.395Z,26.80
2023-02-14T05:38:23.929Z,30.40
2023-02-14T05:43:27.758Z,27.30
2023-02-14T05:48:31.309Z,30.50
2023-02-14T05:53:35.524Z,32.20
2023-02-14T05:58:39.121Z,30.40
2023-02-14T06:03:42.653Z,30.40
2023-02-14T06:08:46.377Z,30.60
2023-02-14T06:13:49.879Z,30.90
2023-02-14T06:18:53.356Z,26.20
2023-02-14T06:23:56.919Z,30.00
2023-02-14T06:29:00.404Z,29.50
2023-02-14T06:34:03.836Z,41.30
2023-02-14T06:39:07.266Z,32.40
2023-02-14T06:44:10.866Z,30.50
2023-02-14T06:49:14.529Z,34.80
2023-02-14T06:54:18.193Z,29.60
2023-02-14T06:59:22.078Z,33.80
2023-02-14T07:04:25.774Z,29.60
2023-02-14T07:09:29.802Z,29.90
2023-02-14T07:14:33.363Z,29.60
2023-02-14T07:19:37.228Z,27.50
2023-02-14T07:24:41.626Z,26.70
2023-02-14T07:29:45.140Z,22.80
2023-02-14T07:34:48.777Z,27.50
2023-02-14T07:39:52.251Z,23.20
2023-02-14T07:44:55.961Z,29.50
2023-02-14T07:49:59.537Z,28.20
2023-02-14T07:55:02.988Z,22.10
2023-02-14T08:00:09.365Z,24.30
2023-02-14T08:05:16.423Z,21.40
2023-02-14T08:10:20.323Z,25.30
2023-02-14T08:15:44.564Z,25.50
2023-02-14T08:20:49.386Z,21.50
2023-02-14T08:25:53.523Z,19.50
2023-02-14T08:31:02.489Z,24.40
2023-02-14T08:36:06.933Z,25.80
2023-02-14T08:41:10.605Z,22.60
2023-02-14T08:46:16.191Z,21.00
2023-02-14T08:51:20.256Z,21.10
2023-02-14T08:56:26.696Z,25.50
2023-02-14T09:01:30.362Z,25.90
2023-02-14T09:06:37.131Z,27.50
2023-02-14T09:11:41.104Z,22.50
2023-02-14T09:16:44.703Z,22.80
2023-02-14T09:21:48.480Z,20.10
2023-02-14T09:26:52.348Z,17.60
2023-02-14T09:31:57.754Z,20.40
2023-02-14T09:37:01.536Z,18.70
2023-02-14T09:42:33.761Z,18.10
2023-02-14T09:47:43.757Z,14.00
2023-02-14T09:52:49.759Z,22.00
2023-02-14T09:58:12.566Z,16.80
2023-02-14T10:03:56.565Z,15.70
2023-02-14T10:09:10.917Z,20.00
2023-02-14T10:14:17.865Z,16.40
2023-02-14T10:19:28.927Z,15.90
2023-02-14T10:24:38.340Z,15.70
2023-02-14T10:29:42.339Z,12.90
2023-02-14T10:34:48.353Z,11.90
2023-02-14T10:40:05.608Z,14.90
2023-02-14T10:45:19.325Z,12.70
2023-02-14T10:50:31.917Z,14.20
2023-02-14T10:55:43.780Z,15.10
2023-02-14T11:00:55.366Z,11.70
2023-02-14T11:05:58.935Z,15.30
2023-02-14T11:11:11.241Z,12.20
2023-02-14T11:16:29.327Z,12.40
2023-02-14T11:21:38.489Z,15.50
2023-02-14T11:26:47.110Z,14.30
2023-02-14T11:31:51.246Z,14.20
2023-02-14T11:36:55.125Z,13.90
2023-02-14T11:42:01.070Z,11.30
2023-02-14T11:47:20.774Z,8.60
2023-02-14T11:52:28.373Z,8.40
2023-02-14T11:57:35.370Z,9.90
2023-02-14T12:02:41.911Z,5.70
2023-02-14T12:07:48.189Z,6.10
2023-02-14T12:12:58.814Z,4.70
2023-02-14T12:18:17.821Z,6.50
2023-02-14T12:23:26.969Z,7.90
2023-02-14T12:28:38.839Z,4.90
2023-02-14T12:33:42.473Z,11.40
2023-02-14T12:38:55.564Z,10.50
2023-02-14T12:44:05.784Z,7.60
2023-02-14T12:49:32.102Z,8.00
2023-02-14T12:54:49.456Z,7.20
2023-02-14T13:00:03.201Z,12.30
2023-02-14T13:05:16.729Z,9.40
2023-02-14T13:10:30.290Z,9.40
2023-02-14T13:15:42.171Z,8.50
2023-02-14T13:26:01.138Z,10.60
2023-02-14T13:31:05.672Z,8.30
2023-02-14T13:36:12.253Z,7.60
2023-02-14T13:41:16.986Z,6.80
2023-02-14T13:46:42.774Z,9.50
2023-02-14T13:51:48.626Z,7.90
2023-02-14T13:56:52.267Z,11.50
2023-02-14T14:01:56.385Z,6.50
2023-02-14T14:07:18.933Z,7.80
2023-02-14T14:12:39.549Z,9.30
2023-02-14T14:17:45.381Z,8.70
2023-02-14T14:22:51.054Z,9.60
2023-02-14T14:27:54.518Z,11.90
2023-02-14T14:33:13.529Z,7.30
2023-02-14T14:38:17.157Z,9.50
2023-02-14T14:43:27.233Z,8.30
2023-02-14T14:48:33.352Z,8.00
2023-02-14T14:53:43.983Z,11.00
2023-02-14T14:58:47.520Z,9.90
2023-02-14T15:03:51.399Z,9.00
2023-02-14T15:08:56.101Z,9.00
2023-02-14T15:14:05.353Z,13.60
2023-02-14T15:19:33.871Z,13.50
2023-02-14T15:24:41.590Z,11.90
2023-02-14T15:29:55.937Z,12.00
2023-02-14T15:35:11.061Z,10.70
2023-02-14T15:40:24.113Z,12.40
2023-02-14T15:45:37.001Z,9.80
2023-02-14T15:50:48.212Z,12.70
2023-02-14T15:56:02.598Z,10.40
2023-02-14T16:01:13.332Z,9.20
2023-02-14T16:06:36.765Z,15.20
2023-02-14T16:11:41.343Z,10.40
2023-02-14T16:17:02.379Z,17.70
2023-02-14T16:22:08.604Z,13.70
2023-02-14T16:27:13.205Z,17.20
2023-02-14T16:32:22.720Z,15.50
2023-02-14T16:37:33.790Z,16.40
2023-02-14T16:42:40.280Z,13.20
2023-02-14T16:47:53.770Z,16.60
2023-02-14T16:53:00.845Z,16.10
2023-02-14T16:58:05.925Z,20.70
2023-02-14T17:03:13.140Z,22.30
2023-02-14T17:08:18.275Z,21.40
2023-02-14T17:13:33.110Z,29.80
2023-02-14T17:18:37.943Z,50.30
2023-02-14T17:23:42.852Z,56.60
2023-02-14T17:28:47.257Z,21.80
2023-02-14T17:33:56.530Z,18.90
2023-02-14T17:39:02.865Z,21.00
2023-02-14T17:44:09.674Z,23.80
2023-02-14T17:49:16.184Z,26.90
2023-02-14T17:54:30.194Z,34.20
2023-02-14T17:59:34.892Z,42.90
2023-02-14T18:04:58.704Z,117.60
2023-02-14T18:10:05.958Z,77.50
2023-02-14T18:15:11.946Z,65.00
2023-02-14T18:20:16.616Z,54.90
2023-02-14T18:25:20.737Z,48.60
2023-02-14T18:30:25.282Z,57.40
2023-02-14T18:35:30.839Z,57.70
2023-02-14T18:40:40.976Z,43.20
2023-02-14T18:45:44.330Z,34.10
2023-02-14T18:50:48.093Z,40.50
2023-02-14T18:55:51.580Z,49.90
2023-02-14T19:00:56.070Z,62.80
2023-02-14T19:06:00.415Z,82.40
2023-02-14T19:11:04.783Z,131.70
2023-02-14T19:16:13.060Z,116.70
2023-02-14T19:21:19.271Z,86.20
2023-02-14T19:26:25.249Z,78.10
2023-02-14T19:31:30.361Z,64.40
2023-02-14T19:36:36.969Z,49.30
2023-02-14T19:41:41.815Z,45.80
2023-02-14T19:46:49.852Z,38.20
2023-02-14T19:51:58.203Z,34.80
2023-02-14T19:57:02.445Z,50.70
2023-02-14T20:02:17.358Z,49.70
2023-02-14T20:07:22.455Z,41.80
2023-02-14T20:12:26.550Z,34.40
2023-02-14T20:17:34.526Z,49.90
2023-02-14T20:22:38.602Z,54.10
2023-02-14T20:27:46.836Z,72.60
2023-02-14T20:32:54.344Z,91.20
2023-02-14T20:38:02.388Z,89.90
2023-02-14T20:43:07.696Z,91.30
2023-02-14T20:48:14.276Z,90.00
2023-02-14T20:53:25.631Z,89.90
2023-02-14T20:58:31.658Z,77.00
2023-02-14T21:03:38.268Z,76.20
2023-02-14T21:08:46.485Z,76.10
2023-02-14T21:13:58.599Z,68.50
2023-02-14T21:19:04.336Z,68.50
2023-02-14T21:24:10.222Z,76.40
2023-02-14T21:29:14.412Z,73.00
2023-02-14T21:34:18.109Z,82.30
2023-02-14T21:39:26.897Z,74.60
2023-02-14T21:44:49.843Z,73.40
2023-02-14T21:50:12.128Z,75.30
2023-02-14T21:55:17.753Z,78.50
2023-02-14T22:00:22.842Z,71.00
2023-02-14T22:05:27.307Z,66.80
2023-02-14T22:10:32.753Z,62.20
2023-02-14T22:15:42.895Z,64.30
2023-02-14T22:20:48.084Z,58.30
2023-02-14T22:25:52.512Z,66.30
2023-02-14T22:31:00.424Z,67.90
2023-02-14T22:36:06.900Z,63.70
2023-02-14T22:41:13.970Z,60.60
2023-02-14T22:46:20.112Z,62.60
2023-02-14T22:51:26.464Z,65.30
2023-02-14T22:56:34.070Z,69.40
2023-02-14T23:01:38.838Z,77.90
2023-02-14T23:06:43.221Z,90.20
2023-02-14T23:11:48.100Z,108.10
2023-02-14T23:17:10.684Z,108.80
2023-02-14T23:22:20.599Z,99.40
2023-02-14T23:27:26.800Z,99.90
2023-02-14T23:32:30.781Z,98.60
2023-02-14T23:37:34.914Z,93.90
2023-02-14T23:42:40.373Z,90.70
2023-02-14T23:47:44.857Z,85.20
2023-02-14T23:53:05.478Z,98.40
2023-02-14T23:58:09.283Z,90.30
